createdAt,value
2022-08-19T00:00:17.748Z,966.24
2022-08-19T00:01:17.726Z,966.24
2022-08-19T00:02:18.718Z,966.35
2022-08-19T00:03:17.692Z,966.45
2022-08-19T00:04:17.724Z,966.38
2022-08-19T00:05:17.652Z,966.38
2022-08-19T00:06:17.634Z,966.49
2022-08-19T00:07:17.612Z,966.37
2022-08-19T00:08:17.599Z,966.34
2022-08-19T00:09:17.600Z,966.44
2022-08-19T00:10:17.554Z,966.39
2022-08-19T00:11:24.413Z,966.26
2022-08-19T00:12:18.514Z,966.33
2022-08-19T00:13:17.496Z,966.32
2022-08-19T00:14:17.506Z,966.31
2022-08-19T00:15:17.460Z,966.31
2022-08-19T00:16:17.439Z,966.22
2022-08-19T00:17:17.427Z,966.31
2022-08-19T00:18:17.403Z,966.34
2022-08-19T00:19:17.411Z,966.26
2022-08-19T00:20:17.367Z,966.26
2022-08-19T00:21:17.345Z,966.30
2022-08-19T00:22:17.326Z,966.24
2022-08-19T00:23:17.309Z,966.40
2022-08-19T00:24:17.319Z,966.31
2022-08-19T00:25:17.269Z,966.34
2022-08-19T00:26:17.249Z,966.36
2022-08-19T00:27:25.851Z,966.30
2022-08-19T00:28:18.215Z,966.29
2022-08-19T00:29:17.219Z,966.29
2022-08-19T00:30:17.173Z,966.29
2022-08-19T00:31:17.167Z,966.23
2022-08-19T00:32:17.131Z,966.28
2022-08-19T00:33:17.115Z,966.30
2022-08-19T00:34:17.128Z,966.27
2022-08-19T00:35:17.074Z,966.36
2022-08-19T00:36:17.058Z,966.36
2022-08-19T00:37:17.038Z,966.36
2022-08-19T00:38:17.024Z,966.40
2022-08-19T00:39:18.029Z,966.36
2022-08-19T00:40:16.983Z,966.35
2022-08-19T00:41:16.961Z,966.24
2022-08-19T00:42:16.944Z,966.29
2022-08-19T00:43:16.929Z,966.22
2022-08-19T00:44:16.937Z,966.20
2022-08-19T00:45:16.888Z,966.18
2022-08-19T00:46:16.874Z,966.18
2022-08-19T00:47:16.851Z,966.19
2022-08-19T00:48:16.832Z,966.19
2022-08-19T00:49:16.836Z,966.19
2022-08-19T00:50:16.794Z,966.16
2022-08-19T00:51:16.772Z,966.23
2022-08-19T00:52:16.755Z,966.23
2022-08-19T00:53:16.733Z,966.22
2022-08-19T00:54:16.742Z,966.24
2022-08-19T00:55:16.695Z,966.15
2022-08-19T00:56:16.677Z,966.20
2022-08-19T00:57:16.657Z,966.21
2022-08-19T00:58:16.640Z,966.16
2022-08-19T00:59:16.645Z,966.20
2022-08-19T01:00:17.600Z,966.19
2022-08-19T01:01:16.604Z,966.21
2022-08-19T01:02:16.553Z,966.22
2022-08-19T01:03:17.541Z,966.17
2022-08-19T01:04:16.561Z,966.15
2022-08-19T01:05:16.504Z,966.14
2022-08-19T01:06:19.855Z,966.12
2022-08-19T01:07:19.496Z,966.09
2022-08-19T01:08:16.451Z,966.06
2022-08-19T01:09:16.460Z,966.02
2022-08-19T01:10:16.408Z,966.05
2022-08-19T01:11:16.386Z,966.07
2022-08-19T01:12:16.372Z,966.09
2022-08-19T01:13:16.353Z,966.07
2022-08-19T01:14:16.331Z,965.99
2022-08-19T01:15:16.340Z,966.06
2022-08-19T01:16:16.334Z,966.02
2022-08-19T01:17:16.273Z,966.02
2022-08-19T01:18:16.251Z,965.96
2022-08-19T01:19:16.234Z,965.96
2022-08-19T01:20:16.260Z,965.96
2022-08-19T01:21:16.195Z,965.98
2022-08-19T01:22:16.812Z,965.93
2022-08-19T01:23:16.163Z,965.95
2022-08-19T01:24:16.135Z,965.90
2022-08-19T01:25:16.143Z,965.88
2022-08-19T01:26:16.093Z,965.93
2022-08-19T01:27:16.075Z,965.92
2022-08-19T01:28:16.054Z,965.98
2022-08-19T01:29:16.034Z,965.93
2022-08-19T01:30:16.038Z,965.96
2022-08-19T01:31:27.393Z,965.94
2022-08-19T01:32:32.446Z,965.96
2022-08-19T01:33:16.957Z,965.94
2022-08-19T01:34:15.937Z,965.98
2022-08-19T01:35:15.942Z,965.97
2022-08-19T01:36:15.900Z,966.00
2022-08-19T01:37:15.881Z,965.97
2022-08-19T01:38:16.861Z,965.97
2022-08-19T01:39:15.837Z,965.93
2022-08-19T01:40:15.866Z,965.99
2022-08-19T01:41:15.799Z,966.09
2022-08-19T01:42:15.783Z,966.01
2022-08-19T01:43:15.765Z,966.08
2022-08-19T01:44:18.722Z,966.04
2022-08-19T01:45:15.750Z,965.98
2022-08-19T01:46:15.707Z,966.05
2022-08-19T01:47:15.684Z,966.04
2022-08-19T01:48:15.664Z,966.03
2022-08-19T01:49:15.649Z,966.03
2022-08-19T01:50:15.654Z,965.99
2022-08-19T01:51:15.610Z,966.09
2022-08-19T01:52:15.589Z,966.02
2022-08-19T01:53:15.569Z,966.01
2022-08-19T01:54:23.270Z,966.06
2022-08-19T01:55:16.560Z,966.09
2022-08-19T01:56:15.511Z,966.08
2022-08-19T01:57:15.505Z,966.12
2022-08-19T01:58:15.473Z,966.12
2022-08-19T01:59:15.452Z,966.18
2022-08-19T02:00:15.456Z,966.14
2022-08-19T02:01:15.446Z,966.17
2022-08-19T02:02:15.388Z,966.15
2022-08-19T02:03:15.370Z,966.14
2022-08-19T02:04:15.350Z,966.18
2022-08-19T02:05:15.359Z,966.14
2022-08-19T02:06:15.314Z,966.15
2022-08-19T02:07:15.292Z,966.08
2022-08-19T02:08:15.274Z,966.09
2022-08-19T02:09:15.252Z,966.05
2022-08-19T02:10:16.551Z,966.08
2022-08-19T02:11:15.244Z,966.08
2022-08-19T02:12:15.196Z,966.10
2022-08-19T02:13:15.174Z,966.14
2022-08-19T02:14:15.153Z,966.18
2022-08-19T02:15:15.140Z,966.16
2022-08-19T02:16:15.144Z,966.16
2022-08-19T02:17:15.098Z,966.13
2022-08-19T02:18:15.077Z,966.06
2022-08-19T02:19:15.059Z,966.13
2022-08-19T02:20:15.067Z,966.11
2022-08-19T02:21:15.020Z,966.16
2022-08-19T02:22:15.002Z,966.12
2022-08-19T02:23:15.982Z,966.06
2022-08-19T02:24:14.961Z,966.10
2022-08-19T02:25:14.967Z,966.05
2022-08-19T02:26:14.921Z,966.05
2022-08-19T02:27:14.903Z,966.00
2022-08-19T02:28:18.582Z,965.99
2022-08-19T02:29:15.885Z,965.98
2022-08-19T02:30:14.840Z,965.96
2022-08-19T02:31:14.824Z,966.00
2022-08-19T02:32:14.805Z,966.04
2022-08-19T02:33:14.780Z,966.01
2022-08-19T02:34:14.757Z,965.98
2022-08-19T02:35:14.767Z,966.10
2022-08-19T02:36:15.563Z,966.04
2022-08-19T02:37:14.698Z,966.01
2022-08-19T02:38:14.681Z,966.07
2022-08-19T02:39:14.663Z,966.01
2022-08-19T02:40:14.701Z,966.03
2022-08-19T02:41:14.621Z,966.02
2022-08-19T02:42:14.603Z,966.03
2022-08-19T02:43:14.579Z,966.09
2022-08-19T02:44:30.163Z,966.10
2022-08-19T02:45:14.565Z,966.12
2022-08-19T02:46:14.519Z,966.16
2022-08-19T02:47:14.495Z,966.11
2022-08-19T02:48:21.158Z,966.16
2022-08-19T02:49:15.456Z,966.05
2022-08-19T02:50:14.460Z,966.07
2022-08-19T02:51:14.418Z,966.03
2022-08-19T02:52:14.393Z,966.03
2022-08-19T02:53:14.374Z,966.06
2022-08-19T02:54:14.349Z,966.00
2022-08-19T02:55:14.357Z,966.05
2022-08-19T02:56:14.312Z,965.93
2022-08-19T02:57:14.292Z,965.95
2022-08-19T02:58:14.271Z,966.01
2022-08-19T02:59:14.252Z,966.04
2022-08-19T03:00:15.259Z,966.05
2022-08-19T03:01:14.237Z,966.00
2022-08-19T03:02:15.194Z,966.08
2022-08-19T03:03:14.174Z,966.05
2022-08-19T03:04:14.154Z,966.07
2022-08-19T03:05:14.160Z,966.08
2022-08-19T03:06:14.119Z,966.07
2022-08-19T03:07:14.095Z,966.10
2022-08-19T03:08:14.075Z,966.13
2022-08-19T03:09:14.565Z,966.15
2022-08-19T03:10:14.057Z,966.11
2022-08-19T03:11:14.013Z,966.10
2022-08-19T03:12:13.994Z,966.05
2022-08-19T03:13:13.976Z,966.09
2022-08-19T03:14:13.956Z,966.06
2022-08-19T03:15:13.959Z,966.08
2022-08-19T03:16:13.908Z,966.08
2022-08-19T03:17:13.889Z,966.10
2022-08-19T03:18:13.871Z,966.08
2022-08-19T03:19:13.851Z,966.15
2022-08-19T03:20:13.858Z,966.17
2022-08-19T03:21:13.808Z,966.14
2022-08-19T03:22:13.790Z,966.22
2022-08-19T03:23:13.765Z,966.16
2022-08-19T03:24:13.743Z,966.21
2022-08-19T03:25:13.750Z,966.24
2022-08-19T03:26:15.972Z,966.22
2022-08-19T03:27:14.684Z,966.21
2022-08-19T03:28:13.664Z,966.21
2022-08-19T03:29:14.175Z,966.22
2022-08-19T03:30:13.653Z,966.21
2022-08-19T03:31:44.900Z,966.17
2022-08-19T03:32:31.724Z,966.20
2022-08-19T03:33:18.166Z,966.21
2022-08-19T03:34:14.549Z,966.16
2022-08-19T03:35:13.555Z,966.19
2022-08-19T03:36:13.508Z,966.21
2022-08-19T03:37:13.486Z,966.26
2022-08-19T03:38:13.469Z,966.20
2022-08-19T03:39:13.452Z,966.27
2022-08-19T03:40:14.447Z,966.27
2022-08-19T03:41:13.404Z,966.32
2022-08-19T03:42:32.340Z,966.37
2022-08-19T03:43:14.370Z,966.27
2022-08-19T03:44:16.962Z,966.36
2022-08-19T03:45:14.361Z,966.44
2022-08-19T03:46:13.312Z,966.40
2022-08-19T03:47:13.297Z,966.41
2022-08-19T03:48:13.282Z,966.44
2022-08-19T03:49:14.389Z,966.41
2022-08-19T03:50:13.263Z,966.45
2022-08-19T03:51:13.217Z,966.48
2022-08-19T03:52:13.196Z,966.49
2022-08-19T03:53:13.174Z,966.49
2022-08-19T03:54:13.163Z,966.50
2022-08-19T03:55:13.159Z,966.46
2022-08-19T03:56:13.112Z,966.42
2022-08-19T03:57:13.091Z,966.47
2022-08-19T03:58:13.076Z,966.46
2022-08-19T03:59:13.051Z,966.51
2022-08-19T04:00:14.122Z,966.39
2022-08-19T04:01:13.089Z,966.40
2022-08-19T04:02:13.989Z,966.46
2022-08-19T04:03:12.970Z,966.41
2022-08-19T04:04:12.948Z,966.44
2022-08-19T04:05:13.519Z,966.43
2022-08-19T04:06:12.910Z,966.44
2022-08-19T04:07:12.887Z,966.41
2022-08-19T04:08:14.021Z,966.47
2022-08-19T04:09:14.846Z,966.42
2022-08-19T04:10:12.850Z,966.43
2022-08-19T04:11:14.807Z,966.43
2022-08-19T04:12:12.789Z,966.41
2022-08-19T04:13:12.816Z,966.46
2022-08-19T04:14:12.750Z,966.49
2022-08-19T04:15:12.757Z,966.47
2022-08-19T04:16:12.705Z,966.47
2022-08-19T04:17:12.688Z,966.48
2022-08-19T04:18:12.663Z,966.45
2022-08-19T04:19:12.648Z,966.49
2022-08-19T04:20:12.663Z,966.47
2022-08-19T04:21:12.605Z,966.44
2022-08-19T04:22:12.583Z,966.49
2022-08-19T04:23:12.561Z,966.54
2022-08-19T04:24:12.538Z,966.54
2022-08-19T04:25:12.550Z,966.52
2022-08-19T04:26:12.917Z,966.52
2022-08-19T04:27:12.480Z,966.50
2022-08-19T04:28:12.460Z,966.49
2022-08-19T04:29:12.957Z,966.47
2022-08-19T04:30:14.455Z,966.44
2022-08-19T04:31:12.399Z,966.44
2022-08-19T04:32:12.379Z,966.46
2022-08-19T04:33:12.361Z,966.44
2022-08-19T04:34:12.341Z,966.46
2022-08-19T04:35:17.547Z,966.47
2022-08-19T04:36:12.331Z,966.40
2022-08-19T04:37:12.280Z,966.38
2022-08-19T04:38:12.256Z,966.39
2022-08-19T04:39:12.236Z,966.45
2022-08-19T04:40:12.272Z,966.42
2022-08-19T04:41:12.221Z,966.40
2022-08-19T04:42:12.174Z,966.39
2022-08-19T04:43:12.151Z,966.43
2022-08-19T04:44:12.131Z,966.46
2022-08-19T04:45:12.504Z,966.48
2022-08-19T04:46:13.117Z,966.48
2022-08-19T04:47:13.072Z,966.45
2022-08-19T04:48:26.207Z,966.44
2022-08-19T04:49:13.776Z,966.43
2022-08-19T04:50:12.006Z,966.41
2022-08-19T04:51:12.014Z,966.39
2022-08-19T04:52:12.968Z,966.34
2022-08-19T04:53:11.945Z,966.38
2022-08-19T04:54:11.921Z,966.34
2022-08-19T04:55:11.907Z,966.33
2022-08-19T04:56:11.911Z,966.38
2022-08-19T04:57:11.866Z,966.35
2022-08-19T04:58:11.847Z,966.33
2022-08-19T04:59:11.825Z,966.33
2022-08-19T05:00:11.806Z,966.39
2022-08-19T05:01:11.874Z,966.42
2022-08-19T05:02:11.761Z,966.44
2022-08-19T05:03:11.738Z,966.43
2022-08-19T05:04:11.722Z,966.46
2022-08-19T05:05:11.696Z,966.45
2022-08-19T05:06:11.702Z,966.48
2022-08-19T05:07:11.655Z,966.47
2022-08-19T05:08:11.638Z,966.53
2022-08-19T05:09:12.616Z,966.54
2022-08-19T05:10:11.594Z,966.57
2022-08-19T05:11:11.600Z,966.60
2022-08-19T05:12:12.551Z,966.60
2022-08-19T05:13:11.535Z,966.51
2022-08-19T05:14:11.513Z,966.53
2022-08-19T05:15:11.510Z,966.46
2022-08-19T05:16:11.495Z,966.49
2022-08-19T05:17:27.174Z,966.53
2022-08-19T05:18:13.432Z,966.47
2022-08-19T05:19:11.403Z,966.46
2022-08-19T05:20:11.384Z,966.54
2022-08-19T05:21:11.390Z,966.50
2022-08-19T05:22:11.367Z,966.45
2022-08-19T05:23:20.464Z,966.48
2022-08-19T05:24:12.301Z,966.49
2022-08-19T05:25:13.520Z,966.51
2022-08-19T05:26:12.290Z,966.49
2022-08-19T05:27:11.240Z,966.44
2022-08-19T05:28:11.218Z,966.50
2022-08-19T05:29:11.201Z,966.45
2022-08-19T05:30:11.179Z,966.38
2022-08-19T05:31:11.184Z,966.48
2022-08-19T05:32:11.140Z,966.48
2022-08-19T05:33:11.124Z,966.54
2022-08-19T05:34:18.563Z,966.48
2022-08-19T05:35:12.082Z,966.47
2022-08-19T05:36:11.089Z,966.45
2022-08-19T05:37:11.040Z,966.48
2022-08-19T05:38:11.022Z,966.50
2022-08-19T05:39:11.002Z,966.40
2022-08-19T05:40:11.066Z,966.41
2022-08-19T05:41:11.004Z,966.47
2022-08-19T05:42:10.946Z,966.39
2022-08-19T05:43:10.928Z,966.39
2022-08-19T05:44:10.909Z,966.34
2022-08-19T05:45:10.890Z,966.36
2022-08-19T05:46:10.898Z,966.35
2022-08-19T05:47:10.851Z,966.38
2022-08-19T05:48:10.829Z,966.41
2022-08-19T05:49:10.809Z,966.35
2022-08-19T05:50:10.811Z,966.35
2022-08-19T05:51:10.791Z,966.40
2022-08-19T05:52:11.757Z,966.34
2022-08-19T05:53:10.738Z,966.34
2022-08-19T05:54:10.716Z,966.38
2022-08-19T05:55:10.698Z,966.36
2022-08-19T05:56:10.708Z,966.35
2022-08-19T05:57:11.741Z,966.37
2022-08-19T05:58:10.643Z,966.34
2022-08-19T05:59:10.630Z,966.31
2022-08-19T06:00:10.610Z,966.29
2022-08-19T06:01:10.618Z,966.29
2022-08-19T06:02:10.641Z,966.32
2022-08-19T06:03:12.701Z,966.28
2022-08-19T06:04:10.541Z,966.31
2022-08-19T06:05:10.526Z,966.28
2022-08-19T06:06:10.531Z,966.23
2022-08-19T06:07:12.124Z,966.28
2022-08-19T06:08:10.469Z,966.34
2022-08-19T06:09:10.463Z,966.28
2022-08-19T06:10:10.440Z,966.29
2022-08-19T06:11:10.458Z,966.32
2022-08-19T06:12:10.413Z,966.30
2022-08-19T06:13:10.379Z,966.21
2022-08-19T06:14:10.370Z,966.26
2022-08-19T06:15:11.343Z,966.27
2022-08-19T06:16:10.388Z,966.34
2022-08-19T06:17:10.315Z,966.30
2022-08-19T06:18:10.289Z,966.32
2022-08-19T06:19:10.271Z,966.35
2022-08-19T06:20:10.261Z,966.31
2022-08-19T06:21:10.271Z,966.34
2022-08-19T06:22:10.219Z,966.32
2022-08-19T06:23:10.215Z,966.33
2022-08-19T06:24:10.191Z,966.29
2022-08-19T06:25:10.177Z,966.33
2022-08-19T06:26:10.175Z,966.32
2022-08-19T06:27:10.129Z,966.35
2022-08-19T06:28:15.018Z,966.29
2022-08-19T06:29:12.094Z,966.39
2022-08-19T06:30:10.077Z,966.31
2022-08-19T06:31:10.083Z,966.31
2022-08-19T06:32:10.044Z,966.36
2022-08-19T06:33:10.025Z,966.42
2022-08-19T06:34:10.010Z,966.42
2022-08-19T06:35:09.990Z,966.43
2022-08-19T06:36:09.995Z,966.39
2022-08-19T06:37:09.953Z,966.52
2022-08-19T06:38:09.933Z,966.52
2022-08-19T06:39:09.913Z,966.50
2022-08-19T06:40:09.930Z,966.60
2022-08-19T06:41:09.905Z,966.51
2022-08-19T06:42:10.945Z,966.62
2022-08-19T06:43:09.843Z,966.57
2022-08-19T06:44:09.827Z,966.60
2022-08-19T06:45:09.809Z,966.67
2022-08-19T06:46:09.814Z,966.49
2022-08-19T06:47:14.588Z,966.62
2022-08-19T06:48:11.731Z,966.55
2022-08-19T06:49:09.738Z,966.60
2022-08-19T06:50:09.715Z,966.67
2022-08-19T06:51:09.729Z,966.54
2022-08-19T06:52:09.684Z,966.64
2022-08-19T06:53:09.670Z,966.55
2022-08-19T06:54:19.297Z,966.65
2022-08-19T06:55:10.630Z,966.62
2022-08-19T06:56:09.639Z,966.72
2022-08-19T06:57:09.595Z,966.72
2022-08-19T06:58:09.578Z,966.68
2022-08-19T06:59:09.560Z,966.86
2022-08-19T07:00:12.797Z,966.88
2022-08-19T07:01:10.571Z,966.87
2022-08-19T07:02:09.557Z,966.96
2022-08-19T07:03:09.925Z,966.78
2022-08-19T07:04:09.492Z,966.94
2022-08-19T07:05:10.453Z,966.99
2022-08-19T07:06:09.900Z,966.87
2022-08-19T07:07:20.992Z,967.03
2022-08-19T07:08:10.406Z,966.96
2022-08-19T07:09:09.385Z,966.98
2022-08-19T07:10:09.373Z,967.06
2022-08-19T07:11:09.526Z,967.12
2022-08-19T07:12:09.339Z,967.15
2022-08-19T07:13:09.323Z,967.05
2022-08-19T07:14:18.962Z,967.18
2022-08-19T07:15:10.287Z,967.25
2022-08-19T07:16:09.300Z,967.05
2022-08-19T07:17:09.254Z,967.15
2022-08-19T07:18:11.612Z,967.11
2022-08-19T07:19:11.557Z,967.06
2022-08-19T07:20:09.523Z,967.03
2022-08-19T07:21:09.479Z,967.05
2022-08-19T07:22:09.165Z,966.97
2022-08-19T07:23:09.153Z,966.97
2022-08-19T07:24:09.137Z,966.96
2022-08-19T07:25:09.122Z,966.88
2022-08-19T07:26:09.138Z,967.01
2022-08-19T07:27:13.837Z,966.99
2022-08-19T07:28:10.068Z,967.01
2022-08-19T07:29:10.050Z,967.05
2022-08-19T07:30:11.595Z,967.01
2022-08-19T07:31:09.056Z,967.03
2022-08-19T07:32:13.431Z,967.13
2022-08-19T07:33:09.982Z,967.12
2022-08-19T07:34:08.971Z,967.15
2022-08-19T07:35:08.950Z,967.13
2022-08-19T07:36:08.960Z,967.22
2022-08-19T07:37:08.916Z,967.19
2022-08-19T07:38:08.903Z,967.21
2022-08-19T07:39:08.877Z,967.24
2022-08-19T07:40:08.915Z,967.31
2022-08-19T07:41:08.870Z,967.25
2022-08-19T07:42:08.823Z,967.22
2022-08-19T07:43:13.541Z,967.15
2022-08-19T07:44:10.789Z,967.25
2022-08-19T07:45:08.770Z,967.25
2022-08-19T07:47:12.031Z,967.27
2022-08-19T07:48:09.717Z,967.34
2022-08-19T07:49:08.703Z,967.28
2022-08-19T07:50:08.683Z,967.28
2022-08-19T07:51:08.692Z,967.30
2022-08-19T07:52:08.645Z,967.35
2022-08-19T07:53:08.724Z,967.36
2022-08-19T07:54:08.606Z,967.33
2022-08-19T07:55:40.725Z,967.27
2022-08-19T07:56:09.597Z,967.26
2022-08-19T07:57:08.551Z,967.16
2022-08-19T07:58:08.535Z,967.18
2022-08-19T07:59:08.520Z,967.19
2022-08-19T08:00:08.499Z,967.11
2022-08-19T08:01:08.509Z,967.16
2022-08-19T08:02:08.523Z,967.21
2022-08-19T08:03:08.458Z,967.18
2022-08-19T08:04:08.436Z,967.15
2022-08-19T08:05:08.409Z,967.14
2022-08-19T08:06:08.425Z,967.25
2022-08-19T08:07:08.370Z,967.22
2022-08-19T08:08:08.354Z,967.20
2022-08-19T08:09:08.360Z,967.24
2022-08-19T08:10:20.053Z,967.24
2022-08-19T08:11:08.478Z,967.23
2022-08-19T08:12:32.947Z,967.25
2022-08-19T08:13:10.899Z,967.24
2022-08-19T08:14:08.249Z,967.24
2022-08-19T08:15:12.442Z,967.19
2022-08-19T08:16:10.408Z,967.24
2022-08-19T08:17:11.017Z,967.24
2022-08-19T08:18:08.178Z,967.22
2022-08-19T08:19:18.189Z,967.16
2022-08-19T08:20:10.139Z,967.20
2022-08-19T08:21:08.151Z,967.08
2022-08-19T08:22:08.107Z,967.17
2022-08-19T08:23:08.083Z,967.15
2022-08-19T08:24:08.205Z,967.15
2022-08-19T08:25:08.057Z,967.09
2022-08-19T08:26:08.055Z,967.16
2022-08-19T08:27:11.442Z,967.14
2022-08-19T08:28:07.990Z,967.26
2022-08-19T08:29:12.310Z,967.24
2022-08-19T08:30:07.957Z,967.29
2022-08-19T08:31:09.302Z,967.24
2022-08-19T08:32:14.041Z,967.21
2022-08-19T08:33:08.944Z,967.35
2022-08-19T08:34:07.950Z,967.30
2022-08-19T08:35:07.899Z,967.30
2022-08-19T08:36:07.882Z,967.33
2022-08-19T08:37:07.830Z,967.26
2022-08-19T08:38:07.812Z,967.19
2022-08-19T08:39:07.794Z,967.20
2022-08-19T08:40:11.303Z,967.26
2022-08-19T08:41:07.778Z,967.25
2022-08-19T08:42:09.778Z,967.16
2022-08-19T08:43:11.309Z,967.22
2022-08-19T08:44:07.704Z,967.34
2022-08-19T08:45:07.694Z,967.34
2022-08-19T08:46:07.693Z,967.45
2022-08-19T08:47:07.913Z,967.39
2022-08-19T08:48:07.635Z,967.49
2022-08-19T08:49:08.614Z,967.48
2022-08-19T08:50:07.596Z,967.44
2022-08-19T08:51:07.603Z,967.43
2022-08-19T08:52:08.555Z,967.46
2022-08-19T08:53:07.541Z,967.51
2022-08-19T08:54:07.525Z,967.41
2022-08-19T08:55:10.132Z,967.45
2022-08-19T08:56:07.513Z,967.46
2022-08-19T08:57:07.468Z,967.46
2022-08-19T08:58:07.452Z,967.44
2022-08-19T08:59:07.428Z,967.55
2022-08-19T09:00:07.412Z,967.56
2022-08-19T09:01:08.501Z,967.58
2022-08-19T09:02:07.376Z,967.47
2022-08-19T09:03:07.357Z,967.53
2022-08-19T09:04:07.330Z,967.55
2022-08-19T09:05:08.324Z,967.63
2022-08-19T09:06:12.092Z,967.60
2022-08-19T09:07:18.177Z,967.66
2022-08-19T09:08:07.268Z,967.60
2022-08-19T09:09:11.923Z,967.63
2022-08-19T09:10:08.232Z,967.63
2022-08-19T09:11:07.242Z,967.62
2022-08-19T09:12:07.197Z,967.61
2022-08-19T09:13:09.188Z,967.66
2022-08-19T09:14:07.355Z,967.58
2022-08-19T09:15:07.147Z,967.68
2022-08-19T09:16:07.157Z,967.68
2022-08-19T09:17:07.139Z,967.61
2022-08-19T09:18:07.353Z,967.69
2022-08-19T09:19:07.073Z,967.63
2022-08-19T09:20:09.149Z,967.68
2022-08-19T09:21:07.036Z,967.77
2022-08-19T09:22:07.045Z,967.72
2022-08-19T09:23:07.000Z,967.80
2022-08-19T09:24:06.987Z,967.77
2022-08-19T09:25:06.962Z,967.74
2022-08-19T09:26:06.972Z,967.74
2022-08-19T09:27:18.638Z,967.75
2022-08-19T09:28:15.077Z,967.73
2022-08-19T09:29:07.898Z,967.77
2022-08-19T09:30:06.877Z,967.75
2022-08-19T09:31:06.886Z,967.79
2022-08-19T09:32:06.841Z,967.79
2022-08-19T09:33:07.822Z,967.81
2022-08-19T09:34:06.804Z,967.76
2022-08-19T09:35:08.702Z,967.72
2022-08-19T09:36:08.638Z,967.72
2022-08-19T09:37:06.751Z,967.64
2022-08-19T09:38:06.730Z,967.68
2022-08-19T09:39:16.284Z,967.63
2022-08-19T09:40:07.728Z,967.62
2022-08-19T09:41:06.703Z,967.62
2022-08-19T09:42:06.657Z,967.54
2022-08-19T09:43:11.385Z,967.58
2022-08-19T09:44:07.627Z,967.56
2022-08-19T09:45:10.295Z,967.55
2022-08-19T09:46:06.618Z,967.62
2022-08-19T09:47:06.571Z,967.53
2022-08-19T09:48:06.551Z,967.60
2022-08-19T09:49:06.875Z,967.62
2022-08-19T09:50:06.515Z,967.66
2022-08-19T09:51:06.521Z,967.62
2022-08-19T09:52:07.133Z,967.62
2022-08-19T09:53:06.866Z,967.69
2022-08-19T09:54:07.443Z,967.63
2022-08-19T09:55:07.308Z,967.63
2022-08-19T09:56:06.428Z,967.62
2022-08-19T09:57:07.645Z,967.59
2022-08-19T09:58:06.369Z,967.62
2022-08-19T09:59:06.349Z,967.61
2022-08-19T10:00:06.331Z,967.61
2022-08-19T10:01:06.404Z,967.69
2022-08-19T10:02:10.709Z,967.67
2022-08-19T10:03:06.279Z,967.63
2022-08-19T10:04:19.966Z,967.61
2022-08-19T10:05:08.243Z,967.62
2022-08-19T10:06:15.232Z,967.51
2022-08-19T10:07:07.210Z,967.55
2022-08-19T10:08:06.190Z,967.63
2022-08-19T10:09:09.020Z,967.54
2022-08-19T10:10:06.148Z,967.56
2022-08-19T10:11:28.725Z,967.55
2022-08-19T10:12:06.313Z,967.56
2022-08-19T10:13:07.119Z,967.59
2022-08-19T10:14:06.087Z,967.62
2022-08-19T10:15:06.064Z,967.62
2022-08-19T10:16:06.075Z,967.56
2022-08-19T10:17:19.227Z,967.52
2022-08-19T10:18:07.004Z,967.59
2022-08-19T10:19:06.994Z,967.59
2022-08-19T10:20:05.977Z,967.49
2022-08-19T10:21:05.983Z,967.47
2022-08-19T10:22:05.938Z,967.47
2022-08-19T10:23:05.918Z,967.43
2022-08-19T10:24:05.898Z,967.46
2022-08-19T10:25:05.884Z,967.51
2022-08-19T10:26:05.888Z,967.48
2022-08-19T10:27:05.842Z,967.55
2022-08-19T10:28:05.828Z,967.51
2022-08-19T10:29:05.811Z,967.46
2022-08-19T10:30:05.794Z,967.39
2022-08-19T10:31:05.802Z,967.41
2022-08-19T10:32:09.788Z,967.41
2022-08-19T10:33:11.078Z,967.45
2022-08-19T10:34:09.971Z,967.39
2022-08-19T10:35:06.195Z,967.43
2022-08-19T10:36:05.713Z,967.40
2022-08-19T10:37:05.667Z,967.37
2022-08-19T10:38:06.887Z,967.37
2022-08-19T10:39:05.630Z,967.35
2022-08-19T10:40:05.713Z,967.31
2022-08-19T10:41:05.620Z,967.35
2022-08-19T10:42:05.575Z,967.34
2022-08-19T10:43:05.556Z,967.35
2022-08-19T10:44:05.540Z,967.31
2022-08-19T10:45:05.519Z,967.33
2022-08-19T10:46:05.532Z,967.26
2022-08-19T10:47:05.489Z,967.29
2022-08-19T10:48:06.496Z,967.30
2022-08-19T10:49:06.449Z,967.24
2022-08-19T10:50:05.434Z,967.23
2022-08-19T10:51:05.442Z,967.21
2022-08-19T10:52:05.398Z,967.15
2022-08-19T10:53:08.117Z,967.19
2022-08-19T10:54:06.865Z,967.15
2022-08-19T10:55:08.561Z,967.22
2022-08-19T10:56:05.354Z,967.22
2022-08-19T10:57:05.307Z,967.18
2022-08-19T10:58:05.624Z,967.18
2022-08-19T10:59:05.272Z,967.21
2022-08-19T11:00:05.252Z,967.22
2022-08-19T11:01:05.306Z,967.25
2022-08-19T11:02:05.215Z,967.19
2022-08-19T11:03:05.192Z,967.20
2022-08-19T11:04:06.178Z,967.17
2022-08-19T11:05:13.575Z,967.20
2022-08-19T11:06:06.170Z,967.27
2022-08-19T11:07:05.123Z,967.15
2022-08-19T11:08:07.214Z,967.26
2022-08-19T11:09:06.084Z,967.23
2022-08-19T11:10:05.067Z,967.24
2022-08-19T11:11:05.049Z,967.18
2022-08-19T11:12:05.179Z,967.19
2022-08-19T11:13:05.039Z,967.17
2022-08-19T11:14:04.996Z,967.14
2022-08-19T11:15:04.977Z,967.17
2022-08-19T11:16:07.749Z,967.14
2022-08-19T11:17:05.941Z,967.10
2022-08-19T11:18:04.920Z,967.13
2022-08-19T11:19:05.895Z,967.15
2022-08-19T11:20:05.883Z,967.06
2022-08-19T11:21:04.893Z,967.10
2022-08-19T11:22:04.851Z,967.03
2022-08-19T11:23:04.830Z,967.07
2022-08-19T11:24:04.829Z,967.05
2022-08-19T11:25:04.796Z,967.04
2022-08-19T11:26:04.805Z,967.06
2022-08-19T11:27:04.759Z,966.95
2022-08-19T11:28:04.742Z,966.94
2022-08-19T11:29:04.724Z,967.01
2022-08-19T11:30:04.706Z,966.94
2022-08-19T11:31:04.714Z,966.98
2022-08-19T11:32:04.669Z,966.90
2022-08-19T11:33:04.655Z,966.92
2022-08-19T11:34:04.638Z,966.90
2022-08-19T11:35:04.615Z,966.85
2022-08-19T11:36:04.628Z,966.85
2022-08-19T11:37:05.117Z,966.90
2022-08-19T11:38:08.257Z,966.88
2022-08-19T11:39:06.546Z,966.89
2022-08-19T11:40:04.596Z,966.88
2022-08-19T11:41:04.541Z,966.81
2022-08-19T11:42:04.495Z,966.76
2022-08-19T11:43:04.475Z,966.77
2022-08-19T11:44:04.460Z,966.85
2022-08-19T11:45:04.442Z,966.75
2022-08-19T11:46:04.455Z,966.76
2022-08-19T11:47:09.170Z,966.75
2022-08-19T11:48:05.386Z,966.82
2022-08-19T11:49:04.371Z,966.84
2022-08-19T11:50:04.352Z,966.84
2022-08-19T11:51:04.367Z,966.82
2022-08-19T11:52:04.316Z,966.81
2022-08-19T11:53:04.300Z,966.77
2022-08-19T11:54:04.281Z,966.75
2022-08-19T11:55:04.265Z,966.82
2022-08-19T11:56:04.275Z,966.75
2022-08-19T11:57:04.226Z,966.74
2022-08-19T11:58:04.250Z,966.77
2022-08-19T11:59:04.194Z,966.77
2022-08-19T12:00:04.173Z,966.81
2022-08-19T12:01:04.155Z,966.72
2022-08-19T12:02:04.161Z,966.73
2022-08-19T12:03:04.117Z,966.67
2022-08-19T12:04:04.122Z,966.74
2022-08-19T12:05:04.079Z,966.75
2022-08-19T12:06:04.064Z,966.80
2022-08-19T12:07:04.071Z,966.78
2022-08-19T12:08:04.024Z,966.80
2022-08-19T12:09:04.011Z,966.73
2022-08-19T12:10:03.995Z,966.81
2022-08-19T12:11:03.970Z,966.84
2022-08-19T12:12:03.977Z,966.79
2022-08-19T12:13:03.938Z,966.78
2022-08-19T12:14:03.912Z,966.81
2022-08-19T12:15:03.893Z,966.78
2022-08-19T12:16:03.883Z,966.78
2022-08-19T12:17:03.883Z,966.80
2022-08-19T12:18:03.843Z,966.72
2022-08-19T12:19:03.821Z,966.82
2022-08-19T12:20:03.802Z,966.80
2022-08-19T12:21:03.815Z,966.81
2022-08-19T12:22:03.764Z,966.78
2022-08-19T12:23:03.752Z,966.83
2022-08-19T12:24:03.757Z,966.82
2022-08-19T12:25:03.714Z,966.81
2022-08-19T12:26:03.767Z,966.87
2022-08-19T12:27:03.677Z,966.76
2022-08-19T12:28:04.112Z,966.85
2022-08-19T12:29:03.646Z,966.78